Time;durP1;ratioP1;P1;durP2;ratioP2;P2;SDS_P1;SDS_P2;PMS_P1;PMS_P2;Temp;Humidity;BMP_temperature;BMP_pressure;BME280_temperature;BME280_humidity;BME280_pressure;Samples;Min_cycle;Max_cycle;Signal;HPM_P1;HPM_P2
2022/09/12 00:01:41;;;;;;;11.73;3.35;;;28.20;33.70;;;;;;20758974;28;20090;-61
2022/09/12 00:11:45;;;;;;;14.73;3.20;;;28.20;33.60;;;;;;20758279;28;20057;-56
2022/09/12 00:21:47;;;;;;;13.88;2.80;;;28.20;33.70;;;;;;20758639;28;20096;-57
2022/09/12 00:31:48;;;;;;;11.50;3.05;;;28.10;33.90;;;;;;20756093;28;20065;-56
2022/09/12 00:41:49;;;;;;;10.38;2.83;;;28.00;34.20;;;;;;20756942;28;20499;-60
2022/09/12 00:52:09;;;;;;;17.48;3.92;;;27.90;34.30;;;;;;20755197;28;20058;-62
2022/09/12 01:02:10;;;;;;;14.75;3.42;;;27.90;34.60;;;;;;20754780;28;20046;-61
2022/09/12 01:12:14;;;;;;;11.77;3.42;;;27.80;34.90;;;;;;20754075;28;20124;-61
2022/09/12 01:22:36;;;;;;;13.77;3.75;;;27.80;34.90;;;;;;20753389;28;20046;-60
2022/09/12 01:32:59;;;;;;;13.20;3.00;;;27.80;36.10;;;;;;20751885;28;20062;-57
2022/09/12 01:43:10;;;;;;;10.82;3.60;;;27.70;35.80;;;;;;20751873;28;20045;-54
2022/09/12 01:53:30;;;;;;;10.60;3.78;;;27.70;36.00;;;;;;20750776;28;20046;-55
2022/09/12 02:03:53;;;;;;;18.55;4.78;;;27.60;36.00;;;;;;20750792;28;20092;-56
2022/09/12 02:14:20;;;;;;;14.63;4.05;;;27.60;36.60;;;;;;20750232;28;20471;-61
2022/09/12 02:24:34;;;;;;;17.60;5.03;;;27.50;36.70;;;;;;20750311;28;20410;-61
2022/09/12 02:34:57;;;;;;;11.30;2.80;;;27.30;36.90;;;;;;20748149;28;20140;-56
2022/09/12 02:45:02;;;;;;;13.13;3.72;;;27.20;37.80;;;;;;20748364;28;20046;-55
2022/09/12 02:55:06;;;;;;;16.02;3.97;;;26.70;39.60;;;;;;20747726;28;20495;-60
2022/09/12 03:05:25;;;;;;;12.57;3.38;;;26.70;40.90;;;;;;20747697;28;20042;-56
2022/09/12 03:15:33;;;;;;;12.20;2.70;;;26.60;40.50;;;;;;20747072;28;20046;-58
2022/09/12 03:25:43;;;;;;;10.90;3.30;;;26.70;39.40;;;;;;20746619;28;20050;-59
2022/09/12 03:35:46;;;;;;;12.93;3.08;;;26.70;39.00;;;;;;20758515;28;20053;-55
2022/09/12 03:45:52;;;;;;;9.43;3.20;;;26.60;40.50;;;;;;20761442;28;20054;-57
2022/09/12 03:55:53;;;;;;;12.18;2.70;;;26.70;39.60;;;;;;20759827;28;20096;-59
2022/09/12 04:05:56;;;;;;;14.75;2.50;;;26.60;40.60;;;;;;20759063;28;20046;-61
2022/09/12 04:15:59;;;;;;;12.90;3.60;;;26.60;46.40;;;;;;20758904;28;20398;-57
2022/09/12 04:26:02;;;;;;;10.32;2.60;;;26.40;48.60;;;;;;20756922;28;20058;-61
2022/09/12 04:36:10;;;;;;;12.52;3.70;;;25.80;49.80;;;;;;20756964;28;20465;-58
2022/09/12 04:46:14;;;;;;;11.20;2.75;;;25.70;48.60;;;;;;20755592;28;20132;-61
2022/09/12 04:56:18;;;;;;;12.50;3.70;;;25.60;50.40;;;;;;20755488;28;20125;-60
2022/09/12 05:06:24;;;;;;;15.35;4.50;;;25.60;50.60;;;;;;20754178;28;20060;-61
2022/09/12 05:16:27;;;;;;;10.68;3.10;;;25.70;51.10;;;;;;20754092;28;20077;-61
2022/09/12 05:26:29;;;;;;;11.85;3.22;;;25.70;50.40;;;;;;20753091;28;20073;-60
2022/09/12 05:36:31;;;;;;;13.77;3.88;;;25.70;48.70;;;;;;20752631;28;20119;-60
2022/09/12 05:46:37;;;;;;;;;;;25.60;49.20;;;;;;20751485;28;20052;-61
2022/09/12 05:56:41;;;;;;;14.30;3.47;;;25.60;47.50;;;;;;20750168;28;19967;-62
2022/09/12 06:06:44;;;;;;;9.55;2.97;;;25.60;46.80;;;;;;20749869;28;20049;-60
2022/09/12 06:16:47;;;;;;;9.88;3.08;;;25.60;46.30;;;;;;20750104;28;20053;-61
2022/09/12 06:26:51;;;;;;;13.52;3.33;;;25.60;46.60;;;;;;20748963;28;20062;-62
2022/09/12 06:36:53;;;;;;;14.82;4.13;;;25.50;47.10;;;;;;20749369;28;20073;-56
2022/09/12 06:46:55;;;;;;;11.02;4.13;;;25.50;46.90;;;;;;20747942;28;20140;-60
2022/09/12 06:56:57;;;;;;;;;;;25.50;46.90;;;;;;20748281;28;20474;-59
2022/09/12 07:07:00;;;;;;;16.60;4.10;;;25.50;46.90;;;;;;20754237;28;20111;-61
2022/09/12 07:17:02;;;;;;;13.77;3.45;;;25.60;46.80;;;;;;20762188;28;20057;-57
2022/09/12 07:27:04;;;;;;;15.05;3.42;;;25.80;46.30;;;;;;20760508;28;20093;-57
2022/09/12 07:37:06;;;;;;;13.57;3.45;;;26.00;45.40;;;;;;20760290;28;20053;-56
2022/09/12 07:47:08;;;;;;;14.15;4.05;;;26.20;45.00;;;;;;20760028;28;20053;-57
2022/09/12 07:57:10;;;;;;;13.95;4.55;;;26.40;45.10;;;;;;20759640;28;20054;-59
2022/09/12 08:07:12;;;;;;;8.35;3.17;;;26.60;44.90;;;;;;20758881;28;20536;-60
2022/09/12 08:17:14;;;;;;;7.45;2.00;;;26.90;42.40;;;;;;20780737;28;20068;-54
2022/09/12 08:27:16;;;;;;;9.60;2.92;;;27.20;42.20;;;;;;20796471;28;20053;-60
2022/09/12 08:37:18;;;;;;;13.70;5.32;;;27.50;41.90;;;;;;20795657;28;20042;-56
2022/09/12 08:47:35;;;;;;;10.88;3.17;;;27.70;41.30;;;;;;20795344;28;20117;-55
2022/09/12 08:57:36;;;;;;;12.52;3.88;;;28.10;40.10;;;;;;20814738;28;20054;-55
2022/09/12 09:08:31;;;;;;;13.88;3.83;;;28.20;40.00;;;;;;20793017;28;20169;-56
2022/09/12 09:18:34;;;;;;;16.45;3.50;;;28.60;39.40;;;;;;20453930;29;20055;-60
2022/09/12 09:29:06;;;;;;;14.43;3.47;;;28.80;39.60;;;;;;20459247;28;20452;-55
2022/09/12 09:39:34;;;;;;;10.93;3.35;;;28.80;38.30;;;;;;20460811;28;20126;-59
2022/09/12 09:49:37;;;;;;;13.80;4.82;;;28.70;38.00;;;;;;20592106;28;20494;-53
2022/09/12 09:59:39;;;;;;;17.08;3.78;;;29.10;37.80;;;;;;20785601;28;20049;-58
2022/09/12 10:09:40;;;;;;;17.45;3.95;;;29.40;36.70;;;;;;20771710;28;20041;-58
2022/09/12 10:19:42;;;;;;;11.73;3.20;;;29.50;36.90;;;;;;20784921;28;20050;-55
2022/09/12 10:29:59;;;;;;;17.65;4.57;;;29.40;36.90;;;;;;20787014;28;20132;-57
2022/09/12 10:40:04;;;;;;;21.67;4.40;;;29.20;39.40;;;;;;20792737;28;20065;-57
2022/09/12 10:50:40;;;;;;;10.70;3.55;;;29.00;40.60;;;;;;20803042;28;20049;-57
2022/09/12 11:00:50;;;;;;;17.58;3.38;;;29.10;41.10;;;;;;20802546;28;20128;-57
2022/09/12 11:11:05;;;;;;;15.13;3.87;;;29.20;37.60;;;;;;20791666;28;20390;-55
2022/09/12 11:21:35;;;;;;;15.98;4.22;;;29.50;36.50;;;;;;20844233;28;20104;-59
2022/09/12 11:31:54;;;;;;;12.35;4.07;;;29.70;34.50;;;;;;20838074;28;20053;-58
2022/09/12 11:42:01;;;;;;;16.17;3.95;;;29.60;36.30;;;;;;20841869;28;20128;-59
2022/09/12 11:52:14;;;;;;;13.13;4.03;;;29.40;35.80;;;;;;20838408;28;20088;-59
2022/09/12 12:02:35;;;;;;;10.45;4.10;;;29.30;37.30;;;;;;20839970;28;20077;-60
2022/09/12 12:12:37;;;;;;;13.80;3.78;;;29.20;41.20;;;;;;20840377;28;20489;-59
2022/09/12 12:22:51;;;;;;;12.40;3.90;;;29.00;40.40;;;;;;20841292;28;20049;-60
2022/09/12 12:33:21;;;;;;;12.25;3.85;;;28.90;41.80;;;;;;20838738;28;20055;-61
2022/09/12 12:43:30;;;;;;;16.80;4.43;;;28.70;45.50;;;;;;20666508;28;20129;-60
2022/09/12 12:53:34;;;;;;;8.38;3.35;;;28.40;47.40;;;;;;20665140;28;20093;-60
2022/09/12 13:03:37;;;;;;;13.48;4.03;;;28.20;43.10;;;;;;20663615;28;20046;-61
2022/09/12 13:13:51;;;;;;;15.32;3.70;;;28.20;46.30;;;;;;20699590;28;20585;-60
2022/09/12 13:24:11;;;;;;;17.10;4.82;;;28.20;44.50;;;;;;20834484;28;20056;-61
2022/09/12 13:34:32;;;;;;;16.33;4.22;;;28.50;45.60;;;;;;20833835;28;20068;-59
2022/09/12 13:44:43;;;;;;;11.90;3.60;;;28.80;44.20;;;;;;20817106;28;20106;-60
2022/09/12 13:54:49;;;;;;;24.92;4.70;;;29.00;38.40;;;;;;20832870;28;20053;-60
2022/09/12 14:05:10;;;;;;;9.05;3.15;;;29.20;37.20;;;;;;20831395;28;20045;-60
2022/09/12 14:15:22;;;;;;;13.57;4.10;;;29.40;36.10;;;;;;20831211;28;20139;-60
2022/09/12 14:25:28;;;;;;;15.32;3.47;;;29.10;37.00;;;;;;20831448;28;20214;-60
2022/09/12 14:35:31;;;;;;;10.02;3.30;;;28.90;41.60;;;;;;20829494;28;20050;-60
2022/09/12 14:45:33;;;;;;;9.52;3.38;;;28.50;40.70;;;;;;20829674;28;20049;-59
2022/09/12 14:55:44;;;;;;;13.57;3.42;;;28.60;40.40;;;;;;20811305;28;20461;-60
2022/09/12 15:05:49;;;;;;;10.17;2.80;;;28.40;37.90;;;;;;20829507;28;20072;-60
2022/09/12 15:15:58;;;;;;;7.97;2.38;;;28.10;41.00;;;;;;20829822;28;20478;-60
2022/09/12 15:26:00;;;;;;;8.15;2.50;;;27.90;39.20;;;;;;20813518;28;20049;-58
2022/09/12 15:36:02;;;;;;;11.85;2.55;;;28.20;41.10;;;;;;20842158;28;20205;-55
2022/09/12 15:46:05;;;;;;;12.20;2.40;;;28.10;40.00;;;;;;20842358;28;20045;-60
2022/09/12 15:56:06;;;;;;;10.85;3.20;;;28.30;42.30;;;;;;20841950;28;20045;-59
2022/09/12 16:06:09;;;;;;;9.57;2.85;;;28.00;43.20;;;;;;20841554;28;20061;-59
2022/09/12 16:16:11;;;;;;;12.68;3.50;;;27.70;42.70;;;;;;20822395;28;20050;-59
2022/09/12 16:26:12;;;;;;;13.05;3.08;;;27.80;41.10;;;;;;20839525;28;20394;-60
2022/09/12 16:36:17;;;;;;;10.32;3.00;;;27.70;40.10;;;;;;20820992;28;20057;-63
2022/09/12 16:46:24;;;;;;;12.00;2.83;;;27.70;40.00;;;;;;20838115;28;20115;-59
2022/09/12 16:56:26;;;;;;;7.80;2.78;;;27.70;39.80;;;;;;20837890;28;20058;-60
2022/09/12 17:06:28;;;;;;;13.18;3.80;;;27.70;40.00;;;;;;20835829;28;20064;-59
2022/09/12 17:16:30;;;;;;;13.55;3.42;;;27.70;40.40;;;;;;20835055;28;20057;-61
2022/09/12 17:26:31;;;;;;;15.07;3.22;;;27.70;39.80;;;;;;20833506;28;20064;-58
2022/09/12 17:36:33;;;;;;;10.82;3.72;;;27.70;38.40;;;;;;20816939;28;20458;-60
2022/09/12 17:46:36;;;;;;;14.93;3.03;;;27.70;37.10;;;;;;20833461;28;20143;-60
2022/09/12 17:56:38;;;;;;;18.23;2.78;;;27.90;35.00;;;;;;20831849;28;20132;-59
2022/09/12 18:06:46;;;;;;;14.80;3.67;;;28.00;33.80;;;;;;20832629;28;20406;-59
2022/09/12 18:16:48;;;;;;;12.52;3.47;;;28.10;34.10;;;;;;20832383;28;20069;-59
2022/09/12 18:26:50;;;;;;;19.48;4.32;;;28.00;36.20;;;;;;20813750;28;20104;-59
2022/09/12 18:36:54;;;;;;;13.25;3.55;;;27.80;38.00;;;;;;20830887;28;20474;-59
2022/09/12 18:46:56;;;;;;;12.65;5.28;;;27.60;37.90;;;;;;20830144;28;20413;-59
2022/09/12 18:56:58;;;;;;;14.80;4.15;;;27.50;38.50;;;;;;20829359;28;20140;-59
2022/09/12 19:07:00;;;;;;;11.13;3.97;;;27.40;37.50;;;;;;20841625;28;20045;-60
2022/09/12 19:17:02;;;;;;;13.63;4.22;;;27.50;35.80;;;;;;20845029;28;20478;-59
2022/09/12 19:27:04;;;;;;;17.20;4.15;;;27.60;35.70;;;;;;20844122;28;20053;-59
2022/09/12 19:37:06;;;;;;;12.30;3.53;;;27.60;36.00;;;;;;20843091;28;20050;-61
2022/09/12 19:47:09;;;;;;;16.92;4.13;;;27.50;38.40;;;;;;20841447;28;20053;-61
2022/09/12 19:57:11;;;;;;;12.60;2.92;;;27.20;42.40;;;;;;20842247;28;20512;-60
2022/09/12 20:07:12;;;;;;;;;;;26.90;42.80;;;;;;20841697;28;20053;-60
2022/09/12 20:17:14;;;;;;;14.33;4.10;;;26.60;44.30;;;;;;20840023;28;20000;-60
2022/09/12 20:27:15;;;;;;;;;;;26.60;42.80;;;;;;20839101;28;20111;-61
2022/09/12 20:37:17;;;;;;;13.43;4.90;;;26.60;41.70;;;;;;20839378;28;20285;-62
2022/09/12 20:47:19;;;;;;;10.10;2.92;;;26.70;40.10;;;;;;20838859;28;20393;-61
2022/09/12 20:57:22;;;;;;;7.07;1.45;;;26.70;38.50;;;;;;20819540;28;20049;-61
2022/09/12 21:07:23;;;;;;;7.32;1.45;;;26.80;35.20;;;;;;20836460;28;20053;-61
2022/09/12 21:17:25;;;;;;;8.38;1.45;;;26.90;34.60;;;;;;20835473;28;20125;-59
2022/09/12 21:27:27;;;;;;;6.07;1.50;;;26.80;36.70;;;;;;20834195;28;20421;-58
2022/09/12 21:37:29;;;;;;;;;;;26.70;39.10;;;;;;20816967;28;20474;-62
2022/09/12 21:47:30;;;;;;;16.73;2.27;;;26.50;38.70;;;;;;20834495;28;19960;-60
2022/09/12 21:57:33;;;;;;;8.60;2.00;;;26.40;38.10;;;;;;20833662;28;20098;-59
2022/09/12 22:07:36;;;;;;;6.82;1.40;;;26.50;37.90;;;;;;20814812;28;20051;-61
2022/09/12 22:17:37;;;;;;;7.15;2.28;;;26.40;37.40;;;;;;20813802;28;20049;-60
2022/09/12 22:27:39;;;;;;;6.57;1.85;;;26.50;36.70;;;;;;20831250;28;20050;-59
2022/09/12 22:37:43;;;;;;;8.13;2.38;;;26.60;36.00;;;;;;20830647;28;20053;-60
2022/09/12 22:47:45;;;;;;;5.03;1.80;;;26.70;35.80;;;;;;20830263;28;20089;-59
2022/09/12 22:57:47;;;;;;;9.43;1.52;;;26.90;34.90;;;;;;20830370;28;20054;-59
2022/09/12 23:07:49;;;;;;;8.82;2.22;;;26.90;35.10;;;;;;20829637;28;20057;-59
2022/09/12 23:17:51;;;;;;;6.45;2.15;;;26.90;35.90;;;;;;20829559;28;20049;-61
2022/09/12 23:27:53;;;;;;;;;;;26.70;36.30;;;;;;20829038;28;20100;-59
2022/09/12 23:37:54;;;;;;;9.27;1.87;;;26.60;36.50;;;;;;20828740;28;20320;-58
2022/09/12 23:47:56;;;;;;;6.32;2.20;;;26.50;37.10;;;;;;20832426;28;20079;-57
2022/09/12 23:57:57;;;;;;;;;;;26.50;37.80;;;;;;20842857;28;20079;-57
